sensor_id;sensor_type;location;lat;lon;timestamp;P1;durP1;ratioP1;P2;durP2;ratioP2
74170;SDS011;62526;50.948;6.590;2023-04-29T00:00:38;25.07;;;14.90;;
74170;SDS011;62526;50.948;6.590;2023-04-29T00:03:05;19.70;;;12.03;;
74170;SDS011;62526;50.948;6.590;2023-04-29T00:05:31;21.83;;;13.30;;
74170;SDS011;62526;50.948;6.590;2023-04-29T00:07:59;24.90;;;14.50;;
74170;SDS011;62526;50.948;6.590;2023-04-29T00:10:25;24.40;;;14.83;;
74170;SDS011;62526;50.948;6.590;2023-04-29T00:12:52;28.50;;;16.53;;
74170;SDS011;62526;50.948;6.590;2023-04-29T00:15:19;25.43;;;14.67;;
74170;SDS011;62526;50.948;6.590;2023-04-29T00:17:45;17.83;;;10.03;;
74170;SDS011;62526;50.948;6.590;2023-04-29T00:20:12;24.10;;;11.03;;
74170;SDS011;62526;50.948;6.590;2023-04-29T00:22:39;22.90;;;13.93;;
74170;SDS011;62526;50.948;6.590;2023-04-29T00:25:05;21.97;;;13.37;;
74170;SDS011;62526;50.948;6.590;2023-04-29T00:27:33;18.17;;;10.20;;
74170;SDS011;62526;50.948;6.590;2023-04-29T00:30:00;27.50;;;15.30;;
74170;SDS011;62526;50.948;6.590;2023-04-29T00:32:33;29.77;;;16.53;;
74170;SDS011;62526;50.948;6.590;2023-04-29T00:34:59;22.20;;;13.53;;
74170;SDS011;62526;50.948;6.590;2023-04-29T00:37:26;23.87;;;12.53;;
74170;SDS011;62526;50.948;6.590;2023-04-29T00:39:52;18.33;;;10.77;;
74170;SDS011;62526;50.948;6.590;2023-04-29T00:42:19;24.33;;;13.20;;
74170;SDS011;62526;50.948;6.590;2023-04-29T00:44:46;25.97;;;13.67;;
74170;SDS011;62526;50.948;6.590;2023-04-29T00:47:12;23.73;;;14.00;;
74170;SDS011;62526;50.948;6.590;2023-04-29T00:49:39;20.60;;;11.17;;
74170;SDS011;62526;50.948;6.590;2023-04-29T00:52:05;27.00;;;15.07;;
74170;SDS011;62526;50.948;6.590;2023-04-29T00:54:33;28.25;;;15.80;;
74170;SDS011;62526;50.948;6.590;2023-04-29T00:57:00;28.57;;;16.03;;
74170;SDS011;62526;50.948;6.590;2023-04-29T00:59:26;31.77;;;17.63;;
74170;SDS011;62526;50.948;6.590;2023-04-29T01:01:53;29.37;;;16.93;;
74170;SDS011;62526;50.948;6.590;2023-04-29T01:04:19;31.63;;;18.70;;
74170;SDS011;62526;50.948;6.590;2023-04-29T01:06:52;36.33;;;20.07;;
74170;SDS011;62526;50.948;6.590;2023-04-29T01:09:25;32.33;;;17.77;;
74170;SDS011;62526;50.948;6.590;2023-04-29T01:14:33;34.70;;;18.37;;
74170;SDS011;62526;50.948;6.590;2023-04-29T01:17:02;33.37;;;18.67;;
74170;SDS011;62526;50.948;6.590;2023-04-29T01:22:12;36.43;;;19.87;;
74170;SDS011;62526;50.948;6.590;2023-04-29T01:24:39;38.60;;;17.67;;
74170;SDS011;62526;50.948;6.590;2023-04-29T01:27:13;42.30;;;19.53;;
74170;SDS011;62526;50.948;6.590;2023-04-29T01:35:21;33.90;;;18.53;;
74170;SDS011;62526;50.948;6.590;2023-04-29T01:38:02;35.53;;;18.17;;
74170;SDS011;62526;50.948;6.590;2023-04-29T01:40:36;36.60;;;19.77;;
74170;SDS011;62526;50.948;6.590;2023-04-29T01:43:03;28.53;;;15.30;;
74170;SDS011;62526;50.948;6.590;2023-04-29T01:45:29;38.10;;;19.87;;
74170;SDS011;62526;50.948;6.590;2023-04-29T01:47:55;35.83;;;20.00;;
74170;SDS011;62526;50.948;6.590;2023-04-29T01:50:22;44.17;;;21.43;;
74170;SDS011;62526;50.948;6.590;2023-04-29T01:52:49;31.07;;;17.77;;
74170;SDS011;62526;50.948;6.590;2023-04-29T01:55:15;41.83;;;22.60;;
74170;SDS011;62526;50.948;6.590;2023-04-29T01:57:42;41.73;;;20.07;;
74170;SDS011;62526;50.948;6.590;2023-04-29T02:00:09;36.93;;;18.33;;
74170;SDS011;62526;50.948;6.590;2023-04-29T02:02:36;36.53;;;19.80;;
74170;SDS011;62526;50.948;6.590;2023-04-29T02:05:02;42.30;;;23.00;;
74170;SDS011;62526;50.948;6.590;2023-04-29T02:07:29;38.30;;;21.23;;
74170;SDS011;62526;50.948;6.590;2023-04-29T02:09:56;47.97;;;22.93;;
74170;SDS011;62526;50.948;6.590;2023-04-29T02:12:22;41.83;;;21.30;;
74170;SDS011;62526;50.948;6.590;2023-04-29T02:14:51;49.60;;;26.23;;
74170;SDS011;62526;50.948;6.590;2023-04-29T02:17:18;44.37;;;22.93;;
74170;SDS011;62526;50.948;6.590;2023-04-29T02:19:45;43.93;;;22.37;;
74170;SDS011;62526;50.948;6.590;2023-04-29T02:22:11;44.47;;;23.90;;
74170;SDS011;62526;50.948;6.590;2023-04-29T02:24:39;43.07;;;23.23;;
74170;SDS011;62526;50.948;6.590;2023-04-29T02:27:05;40.17;;;19.50;;
74170;SDS011;62526;50.948;6.590;2023-04-29T02:29:32;48.23;;;24.70;;
74170;SDS011;62526;50.948;6.590;2023-04-29T02:31:58;53.43;;;27.07;;
74170;SDS011;62526;50.948;6.590;2023-04-29T02:34:25;51.03;;;25.87;;
74170;SDS011;62526;50.948;6.590;2023-04-29T02:36:52;53.83;;;27.87;;
74170;SDS011;62526;50.948;6.590;2023-04-29T02:39:18;55.97;;;26.80;;
74170;SDS011;62526;50.948;6.590;2023-04-29T02:41:45;50.40;;;26.60;;
74170;SDS011;62526;50.948;6.590;2023-04-29T02:44:12;54.47;;;27.87;;
74170;SDS011;62526;50.948;6.590;2023-04-29T02:46:38;50.27;;;28.67;;
74170;SDS011;62526;50.948;6.590;2023-04-29T02:49:05;50.77;;;27.03;;
74170;SDS011;62526;50.948;6.590;2023-04-29T02:51:31;53.30;;;25.60;;
74170;SDS011;62526;50.948;6.590;2023-04-29T02:53:58;52.25;;;26.10;;
74170;SDS011;62526;50.948;6.590;2023-04-29T02:56:25;51.33;;;22.70;;
74170;SDS011;62526;50.948;6.590;2023-04-29T02:58:51;52.00;;;27.67;;
74170;SDS011;62526;50.948;6.590;2023-04-29T03:01:18;85.03;;;36.13;;
74170;SDS011;62526;50.948;6.590;2023-04-29T03:03:44;74.57;;;33.40;;
74170;SDS011;62526;50.948;6.590;2023-04-29T03:06:11;92.83;;;40.70;;
74170;SDS011;62526;50.948;6.590;2023-04-29T03:08:38;97.30;;;39.83;;
74170;SDS011;62526;50.948;6.590;2023-04-29T03:11:04;93.60;;;39.27;;
74170;SDS011;62526;50.948;6.590;2023-04-29T03:13:31;78.37;;;29.87;;
74170;SDS011;62526;50.948;6.590;2023-04-29T03:15:57;74.70;;;33.70;;
74170;SDS011;62526;50.948;6.590;2023-04-29T03:18:24;93.83;;;39.83;;
74170;SDS011;62526;50.948;6.590;2023-04-29T03:20:51;74.57;;;33.93;;
74170;SDS011;62526;50.948;6.590;2023-04-29T03:23:17;84.07;;;35.83;;
74170;SDS011;62526;50.948;6.590;2023-04-29T03:25:44;97.13;;;38.50;;
74170;SDS011;62526;50.948;6.590;2023-04-29T03:28:10;84.23;;;38.40;;
74170;SDS011;62526;50.948;6.590;2023-04-29T03:30:37;81.17;;;38.27;;
74170;SDS011;62526;50.948;6.590;2023-04-29T03:33:04;95.83;;;42.00;;
74170;SDS011;62526;50.948;6.590;2023-04-29T03:35:30;68.60;;;31.80;;
74170;SDS011;62526;50.948;6.590;2023-04-29T03:37:57;74.50;;;32.93;;
74170;SDS011;62526;50.948;6.590;2023-04-29T03:40:24;85.67;;;37.97;;
74170;SDS011;62526;50.948;6.590;2023-04-29T03:42:51;73.77;;;31.43;;
74170;SDS011;62526;50.948;6.590;2023-04-29T03:45:17;81.73;;;36.63;;
74170;SDS011;62526;50.948;6.590;2023-04-29T03:47:44;85.03;;;35.23;;
74170;SDS011;62526;50.948;6.590;2023-04-29T03:50:11;58.00;;;23.83;;
74170;SDS011;62526;50.948;6.590;2023-04-29T03:52:37;83.37;;;33.33;;
74170;SDS011;62526;50.948;6.590;2023-04-29T03:55:04;82.77;;;33.07;;
74170;SDS011;62526;50.948;6.590;2023-04-29T03:57:31;68.10;;;28.00;;
74170;SDS011;62526;50.948;6.590;2023-04-29T03:59:57;59.00;;;22.23;;
74170;SDS011;62526;50.948;6.590;2023-04-29T04:02:24;63.00;;;24.03;;
74170;SDS011;62526;50.948;6.590;2023-04-29T04:04:50;71.50;;;27.23;;
74170;SDS011;62526;50.948;6.590;2023-04-29T04:07:17;26.67;;;11.60;;
74170;SDS011;62526;50.948;6.590;2023-04-29T04:09:44;48.23;;;19.37;;
74170;SDS011;62526;50.948;6.590;2023-04-29T04:12:10;64.83;;;26.37;;
74170;SDS011;62526;50.948;6.590;2023-04-29T04:14:37;72.63;;;27.27;;
74170;SDS011;62526;50.948;6.590;2023-04-29T04:17:03;45.27;;;20.00;;
74170;SDS011;62526;50.948;6.590;2023-04-29T04:19:30;40.13;;;15.87;;
74170;SDS011;62526;50.948;6.590;2023-04-29T04:21:57;50.37;;;21.30;;
74170;SDS011;62526;50.948;6.590;2023-04-29T04:24:23;49.37;;;21.70;;
74170;SDS011;62526;50.948;6.590;2023-04-29T04:26:50;52.67;;;24.63;;
74170;SDS011;62526;50.948;6.590;2023-04-29T04:29:16;51.83;;;22.40;;
74170;SDS011;62526;50.948;6.590;2023-04-29T04:31:43;51.30;;;20.70;;
74170;SDS011;62526;50.948;6.590;2023-04-29T04:34:10;58.93;;;25.50;;
74170;SDS011;62526;50.948;6.590;2023-04-29T04:36:36;55.70;;;24.27;;
74170;SDS011;62526;50.948;6.590;2023-04-29T04:39:03;53.20;;;24.10;;
74170;SDS011;62526;50.948;6.590;2023-04-29T04:41:30;49.27;;;23.00;;
74170;SDS011;62526;50.948;6.590;2023-04-29T04:43:56;51.50;;;22.80;;
74170;SDS011;62526;50.948;6.590;2023-04-29T04:46:23;51.90;;;25.03;;
74170;SDS011;62526;50.948;6.590;2023-04-29T04:48:49;48.03;;;21.93;;
74170;SDS011;62526;50.948;6.590;2023-04-29T04:51:16;51.63;;;23.47;;
74170;SDS011;62526;50.948;6.590;2023-04-29T04:53:43;52.27;;;20.93;;
74170;SDS011;62526;50.948;6.590;2023-04-29T04:56:10;47.20;;;20.10;;
74170;SDS011;62526;50.948;6.590;2023-04-29T04:58:36;39.70;;;17.17;;
74170;SDS011;62526;50.948;6.590;2023-04-29T05:01:03;37.60;;;18.40;;
74170;SDS011;62526;50.948;6.590;2023-04-29T05:03:30;37.83;;;17.83;;
74170;SDS011;62526;50.948;6.590;2023-04-29T05:05:57;40.27;;;17.37;;
74170;SDS011;62526;50.948;6.590;2023-04-29T05:08:23;46.03;;;20.37;;
74170;SDS011;62526;50.948;6.590;2023-04-29T05:10:50;41.23;;;19.57;;
74170;SDS011;62526;50.948;6.590;2023-04-29T05:13:17;30.07;;;14.63;;
74170;SDS011;62526;50.948;6.590;2023-04-29T05:15:44;34.87;;;17.33;;
74170;SDS011;62526;50.948;6.590;2023-04-29T05:18:10;43.07;;;20.13;;
74170;SDS011;62526;50.948;6.590;2023-04-29T05:20:37;23.47;;;11.90;;
74170;SDS011;62526;50.948;6.590;2023-04-29T05:23:04;46.43;;;20.30;;
74170;SDS011;62526;50.948;6.590;2023-04-29T05:25:30;38.97;;;18.30;;
74170;SDS011;62526;50.948;6.590;2023-04-29T05:27:57;33.73;;;18.30;;
74170;SDS011;62526;50.948;6.590;2023-04-29T05:30:23;43.60;;;20.30;;
74170;SDS011;62526;50.948;6.590;2023-04-29T05:32:50;41.20;;;20.30;;
74170;SDS011;62526;50.948;6.590;2023-04-29T05:35:17;36.47;;;17.20;;
74170;SDS011;62526;50.948;6.590;2023-04-29T05:37:43;39.43;;;20.17;;
74170;SDS011;62526;50.948;6.590;2023-04-29T05:40:10;35.40;;;17.60;;
74170;SDS011;62526;50.948;6.590;2023-04-29T05:42:37;37.17;;;17.50;;
74170;SDS011;62526;50.948;6.590;2023-04-29T05:45:03;31.37;;;16.90;;
74170;SDS011;62526;50.948;6.590;2023-04-29T05:47:30;39.73;;;19.20;;
74170;SDS011;62526;50.948;6.590;2023-04-29T05:49:57;27.03;;;14.13;;
74170;SDS011;62526;50.948;6.590;2023-04-29T05:52:24;35.63;;;17.63;;
74170;SDS011;62526;50.948;6.590;2023-04-29T05:54:50;35.63;;;18.17;;
74170;SDS011;62526;50.948;6.590;2023-04-29T05:57:17;32.37;;;15.47;;
74170;SDS011;62526;50.948;6.590;2023-04-29T05:59:44;36.13;;;16.50;;
74170;SDS011;62526;50.948;6.590;2023-04-29T06:02:10;26.00;;;12.33;;
74170;SDS011;62526;50.948;6.590;2023-04-29T06:04:37;29.23;;;16.30;;
74170;SDS011;62526;50.948;6.590;2023-04-29T06:07:03;30.70;;;15.70;;
74170;SDS011;62526;50.948;6.590;2023-04-29T06:09:30;29.33;;;15.43;;
74170;SDS011;62526;50.948;6.590;2023-04-29T06:11:57;30.10;;;14.90;;
74170;SDS011;62526;50.948;6.590;2023-04-29T06:14:23;27.57;;;14.50;;
74170;SDS011;62526;50.948;6.590;2023-04-29T06:16:50;28.67;;;14.27;;
74170;SDS011;62526;50.948;6.590;2023-04-29T06:19:16;22.23;;;11.23;;
74170;SDS011;62526;50.948;6.590;2023-04-29T06:21:43;26.50;;;15.13;;
74170;SDS011;62526;50.948;6.590;2023-04-29T06:24:10;28.17;;;15.70;;
74170;SDS011;62526;50.948;6.590;2023-04-29T06:26:36;29.03;;;15.00;;
74170;SDS011;62526;50.948;6.590;2023-04-29T06:29:03;28.43;;;13.87;;
74170;SDS011;62526;50.948;6.590;2023-04-29T06:31:30;29.43;;;17.20;;
74170;SDS011;62526;50.948;6.590;2023-04-29T06:33:56;31.90;;;16.63;;
74170;SDS011;62526;50.948;6.590;2023-04-29T06:36:23;27.13;;;16.17;;
74170;SDS011;62526;50.948;6.590;2023-04-29T06:38:50;25.20;;;14.30;;
74170;SDS011;62526;50.948;6.590;2023-04-29T06:41:17;25.03;;;13.20;;
74170;SDS011;62526;50.948;6.590;2023-04-29T06:43:43;22.40;;;12.30;;
74170;SDS011;62526;50.948;6.590;2023-04-29T06:46:10;26.50;;;14.53;;
74170;SDS011;62526;50.948;6.590;2023-04-29T06:48:37;31.60;;;16.20;;
74170;SDS011;62526;50.948;6.590;2023-04-29T06:51:03;26.83;;;13.30;;
74170;SDS011;62526;50.948;6.590;2023-04-29T06:53:30;31.17;;;16.80;;
74170;SDS011;62526;50.948;6.590;2023-04-29T06:55:56;29.20;;;16.33;;
74170;SDS011;62526;50.948;6.590;2023-04-29T06:58:23;30.57;;;15.90;;
74170;SDS011;62526;50.948;6.590;2023-04-29T07:00:50;28.10;;;14.30;;
74170;SDS011;62526;50.948;6.590;2023-04-29T07:03:17;29.93;;;14.67;;
74170;SDS011;62526;50.948;6.590;2023-04-29T07:05:43;24.13;;;14.00;;
74170;SDS011;62526;50.948;6.590;2023-04-29T07:08:11;26.43;;;15.27;;
74170;SDS011;62526;50.948;6.590;2023-04-29T07:10:37;19.30;;;11.23;;
74170;SDS011;62526;50.948;6.590;2023-04-29T07:13:04;24.63;;;12.37;;
74170;SDS011;62526;50.948;6.590;2023-04-29T07:15:32;23.77;;;14.90;;
74170;SDS011;62526;50.948;6.590;2023-04-29T07:18:00;26.83;;;15.03;;
74170;SDS011;62526;50.948;6.590;2023-04-29T07:20:26;21.13;;;13.03;;
74170;SDS011;62526;50.948;6.590;2023-04-29T07:22:53;19.27;;;10.90;;
74170;SDS011;62526;50.948;6.590;2023-04-29T07:25:19;23.27;;;12.57;;
74170;SDS011;62526;50.948;6.590;2023-04-29T07:27:46;23.80;;;14.87;;
74170;SDS011;62526;50.948;6.590;2023-04-29T07:30:13;23.53;;;13.33;;
74170;SDS011;62526;50.948;6.590;2023-04-29T07:32:39;23.43;;;13.50;;
74170;SDS011;62526;50.948;6.590;2023-04-29T07:35:06;22.20;;;12.53;;
74170;SDS011;62526;50.948;6.590;2023-04-29T07:37:33;20.83;;;12.10;;
74170;SDS011;62526;50.948;6.590;2023-04-29T07:40:00;21.87;;;13.13;;
74170;SDS011;62526;50.948;6.590;2023-04-29T07:42:26;20.50;;;11.07;;
74170;SDS011;62526;50.948;6.590;2023-04-29T07:44:53;23.87;;;13.63;;
74170;SDS011;62526;50.948;6.590;2023-04-29T07:47:19;17.70;;;11.70;;
74170;SDS011;62526;50.948;6.590;2023-04-29T07:49:46;23.07;;;12.87;;
74170;SDS011;62526;50.948;6.590;2023-04-29T07:52:13;18.93;;;10.13;;
74170;SDS011;62526;50.948;6.590;2023-04-29T07:54:39;18.60;;;11.57;;
74170;SDS011;62526;50.948;6.590;2023-04-29T07:57:06;22.00;;;11.67;;
74170;SDS011;62526;50.948;6.590;2023-04-29T07:59:33;21.63;;;11.17;;
74170;SDS011;62526;50.948;6.590;2023-04-29T08:01:59;24.40;;;12.57;;
74170;SDS011;62526;50.948;6.590;2023-04-29T08:04:26;22.07;;;12.67;;
74170;SDS011;62526;50.948;6.590;2023-04-29T08:06:52;17.70;;;11.17;;
74170;SDS011;62526;50.948;6.590;2023-04-29T08:09:19;18.40;;;10.70;;
74170;SDS011;62526;50.948;6.590;2023-04-29T08:11:46;23.97;;;13.17;;
74170;SDS011;62526;50.948;6.590;2023-04-29T08:14:12;17.40;;;10.90;;
74170;SDS011;62526;50.948;6.590;2023-04-29T08:16:39;21.10;;;12.07;;
74170;SDS011;62526;50.948;6.590;2023-04-29T08:19:05;17.33;;;11.30;;
74170;SDS011;62526;50.948;6.590;2023-04-29T08:21:32;24.80;;;12.30;;
74170;SDS011;62526;50.948;6.590;2023-04-29T08:23:59;20.90;;;11.87;;
74170;SDS011;62526;50.948;6.590;2023-04-29T08:26:25;21.93;;;11.43;;
74170;SDS011;62526;50.948;6.590;2023-04-29T08:28:52;17.90;;;11.23;;
74170;SDS011;62526;50.948;6.590;2023-04-29T08:31:19;16.27;;;11.05;;
74170;SDS011;62526;50.948;6.590;2023-04-29T08:33:45;17.17;;;9.93;;
74170;SDS011;62526;50.948;6.590;2023-04-29T08:36:12;16.58;;;9.48;;
74170;SDS011;62526;50.948;6.590;2023-04-29T08:38:38;14.23;;;8.57;;
74170;SDS011;62526;50.948;6.590;2023-04-29T08:41:06;16.23;;;9.67;;
74170;SDS011;62526;50.948;6.590;2023-04-29T08:43:33;17.05;;;9.27;;
74170;SDS011;62526;50.948;6.590;2023-04-29T08:45:59;18.20;;;10.90;;
74170;SDS011;62526;50.948;6.590;2023-04-29T08:48:26;22.07;;;11.53;;
74170;SDS011;62526;50.948;6.590;2023-04-29T08:50:52;21.10;;;11.73;;
74170;SDS011;62526;50.948;6.590;2023-04-29T08:53:19;20.10;;;10.67;;
74170;SDS011;62526;50.948;6.590;2023-04-29T08:55:46;19.23;;;10.70;;
74170;SDS011;62526;50.948;6.590;2023-04-29T08:58:13;17.80;;;9.70;;
74170;SDS011;62526;50.948;6.590;2023-04-29T09:00:39;20.20;;;11.40;;
74170;SDS011;62526;50.948;6.590;2023-04-29T09:05:51;18.10;;;10.90;;
74170;SDS011;62526;50.948;6.590;2023-04-29T09:08:16;17.27;;;10.77;;
74170;SDS011;62526;50.948;6.590;2023-04-29T09:10:43;18.40;;;9.73;;
74170;SDS011;62526;50.948;6.590;2023-04-29T09:13:21;18.20;;;10.93;;
74170;SDS011;62526;50.948;6.590;2023-04-29T09:15:36;19.43;;;11.27;;
74170;SDS011;62526;50.948;6.590;2023-04-29T09:18:03;16.98;;;10.50;;
74170;SDS011;62526;50.948;6.590;2023-04-29T09:20:29;14.98;;;10.77;;
74170;SDS011;62526;50.948;6.590;2023-04-29T09:22:59;20.80;;;11.75;;
74170;SDS011;62526;50.948;6.590;2023-04-29T09:25:25;16.17;;;9.45;;
74170;SDS011;62526;50.948;6.590;2023-04-29T09:27:51;16.98;;;10.90;;
74170;SDS011;62526;50.948;6.590;2023-04-29T09:30:18;18.87;;;10.45;;
74170;SDS011;62526;50.948;6.590;2023-04-29T09:32:44;16.20;;;10.90;;
74170;SDS011;62526;50.948;6.590;2023-04-29T09:35:22;16.80;;;10.70;;
74170;SDS011;62526;50.948;6.590;2023-04-29T09:37:51;17.80;;;10.52;;
74170;SDS011;62526;50.948;6.590;2023-04-29T09:42:52;18.90;;;11.43;;
74170;SDS011;62526;50.948;6.590;2023-04-29T09:48:01;16.50;;;11.38;;
74170;SDS011;62526;50.948;6.590;2023-04-29T09:50:28;22.15;;;11.80;;
74170;SDS011;62526;50.948;6.590;2023-04-29T09:52:55;17.73;;;10.73;;
74170;SDS011;62526;50.948;6.590;2023-04-29T09:55:21;19.98;;;12.20;;
74170;SDS011;62526;50.948;6.590;2023-04-29T09:57:48;25.23;;;12.65;;
74170;SDS011;62526;50.948;6.590;2023-04-29T10:00:14;17.50;;;10.40;;
74170;SDS011;62526;50.948;6.590;2023-04-29T10:02:41;22.90;;;11.35;;
74170;SDS011;62526;50.948;6.590;2023-04-29T10:05:08;16.65;;;10.18;;
74170;SDS011;62526;50.948;6.590;2023-04-29T10:07:34;16.17;;;11.48;;
74170;SDS011;62526;50.948;6.590;2023-04-29T10:10:01;15.45;;;10.30;;
74170;SDS011;62526;50.948;6.590;2023-04-29T10:12:28;20.42;;;11.88;;
74170;SDS011;62526;50.948;6.590;2023-04-29T10:15:02;20.70;;;12.02;;
74170;SDS011;62526;50.948;6.590;2023-04-29T10:17:38;17.77;;;12.10;;
74170;SDS011;62526;50.948;6.590;2023-04-29T10:20:03;18.80;;;12.27;;
74170;SDS011;62526;50.948;6.590;2023-04-29T10:25:09;16.75;;;11.07;;
74170;SDS011;62526;50.948;6.590;2023-04-29T10:27:36;16.58;;;11.63;;
74170;SDS011;62526;50.948;6.590;2023-04-29T10:30:02;20.05;;;10.85;;
74170;SDS011;62526;50.948;6.590;2023-04-29T10:35:03;22.05;;;12.43;;
74170;SDS011;62526;50.948;6.590;2023-04-29T10:37:30;22.85;;;11.85;;
74170;SDS011;62526;50.948;6.590;2023-04-29T10:40:00;15.43;;;11.00;;
74170;SDS011;62526;50.948;6.590;2023-04-29T10:42:28;19.58;;;12.02;;
74170;SDS011;62526;50.948;6.590;2023-04-29T10:47:31;17.45;;;12.50;;
74170;SDS011;62526;50.948;6.590;2023-04-29T10:50:00;21.60;;;13.88;;
74170;SDS011;62526;50.948;6.590;2023-04-29T10:52:28;23.58;;;13.35;;
74170;SDS011;62526;50.948;6.590;2023-04-29T10:55:01;23.20;;;13.77;;
74170;SDS011;62526;50.948;6.590;2023-04-29T10:57:27;26.50;;;15.10;;
74170;SDS011;62526;50.948;6.590;2023-04-29T10:59:53;22.45;;;14.32;;
74170;SDS011;62526;50.948;6.590;2023-04-29T11:02:21;26.27;;;14.80;;
74170;SDS011;62526;50.948;6.590;2023-04-29T11:07:26;23.87;;;15.32;;
74170;SDS011;62526;50.948;6.590;2023-04-29T11:09:53;25.73;;;16.55;;
74170;SDS011;62526;50.948;6.590;2023-04-29T11:12:20;27.83;;;17.08;;
74170;SDS011;62526;50.948;6.590;2023-04-29T11:14:49;30.48;;;17.37;;
74170;SDS011;62526;50.948;6.590;2023-04-29T11:17:15;27.50;;;15.30;;
74170;SDS011;62526;50.948;6.590;2023-04-29T11:19:42;31.23;;;17.00;;
74170;SDS011;62526;50.948;6.590;2023-04-29T11:22:28;27.70;;;17.67;;
74170;SDS011;62526;50.948;6.590;2023-04-29T11:24:57;33.22;;;18.65;;
74170;SDS011;62526;50.948;6.590;2023-04-29T11:27:30;33.67;;;19.20;;
74170;SDS011;62526;50.948;6.590;2023-04-29T11:29:56;35.42;;;18.65;;
74170;SDS011;62526;50.948;6.590;2023-04-29T11:35:09;32.72;;;19.17;;
74170;SDS011;62526;50.948;6.590;2023-04-29T11:37:35;29.35;;;17.70;;
74170;SDS011;62526;50.948;6.590;2023-04-29T11:40:02;28.30;;;16.90;;
74170;SDS011;62526;50.948;6.590;2023-04-29T11:42:29;34.13;;;17.50;;
74170;SDS011;62526;50.948;6.590;2023-04-29T11:44:55;32.83;;;17.98;;
74170;SDS011;62526;50.948;6.590;2023-04-29T11:47:25;34.03;;;18.35;;
74170;SDS011;62526;50.948;6.590;2023-04-29T11:49:52;32.42;;;19.08;;
74170;SDS011;62526;50.948;6.590;2023-04-29T11:52:18;29.33;;;18.70;;
74170;SDS011;62526;50.948;6.590;2023-04-29T11:54:45;30.75;;;18.15;;
74170;SDS011;62526;50.948;6.590;2023-04-29T11:57:12;36.90;;;19.92;;
74170;SDS011;62526;50.948;6.590;2023-04-29T11:59:40;27.83;;;18.45;;
74170;SDS011;62526;50.948;6.590;2023-04-29T12:02:05;30.98;;;20.15;;
74170;SDS011;62526;50.948;6.590;2023-04-29T12:04:32;28.30;;;18.20;;
74170;SDS011;62526;50.948;6.590;2023-04-29T12:06:58;28.38;;;18.48;;
74170;SDS011;62526;50.948;6.590;2023-04-29T12:09:25;31.50;;;20.75;;
74170;SDS011;62526;50.948;6.590;2023-04-29T12:11:51;33.83;;;20.65;;
74170;SDS011;62526;50.948;6.590;2023-04-29T12:14:18;33.97;;;20.80;;
74170;SDS011;62526;50.948;6.590;2023-04-29T12:16:45;33.58;;;19.58;;
74170;SDS011;62526;50.948;6.590;2023-04-29T12:19:13;33.05;;;20.65;;
74170;SDS011;62526;50.948;6.590;2023-04-29T12:21:46;36.20;;;20.50;;
74170;SDS011;62526;50.948;6.590;2023-04-29T12:24:06;37.30;;;19.58;;
74170;SDS011;62526;50.948;6.590;2023-04-29T12:26:33;34.70;;;19.02;;
74170;SDS011;62526;50.948;6.590;2023-04-29T12:29:00;36.45;;;20.60;;
74170;SDS011;62526;50.948;6.590;2023-04-29T12:31:31;35.13;;;19.50;;
74170;SDS011;62526;50.948;6.590;2023-04-29T12:33:58;37.67;;;20.90;;
74170;SDS011;62526;50.948;6.590;2023-04-29T12:36:26;36.72;;;21.25;;
74170;SDS011;62526;50.948;6.590;2023-04-29T12:38:52;34.13;;;19.20;;
74170;SDS011;62526;50.948;6.590;2023-04-29T12:41:19;36.38;;;20.67;;
74170;SDS011;62526;50.948;6.590;2023-04-29T12:43:45;34.53;;;18.50;;
74170;SDS011;62526;50.948;6.590;2023-04-29T12:46:12;36.30;;;20.12;;
74170;SDS011;62526;50.948;6.590;2023-04-29T12:48:39;33.28;;;20.15;;
74170;SDS011;62526;50.948;6.590;2023-04-29T12:51:07;31.00;;;19.58;;
74170;SDS011;62526;50.948;6.590;2023-04-29T12:53:34;35.25;;;21.33;;
74170;SDS011;62526;50.948;6.590;2023-04-29T12:56:01;37.63;;;22.02;;
74170;SDS011;62526;50.948;6.590;2023-04-29T12:58:28;45.50;;;26.77;;
74170;SDS011;62526;50.948;6.590;2023-04-29T13:00:54;51.75;;;29.30;;
74170;SDS011;62526;50.948;6.590;2023-04-29T13:03:21;45.50;;;27.67;;
74170;SDS011;62526;50.948;6.590;2023-04-29T13:05:48;49.70;;;29.85;;
74170;SDS011;62526;50.948;6.590;2023-04-29T13:08:14;46.97;;;29.23;;
74170;SDS011;62526;50.948;6.590;2023-04-29T13:10:41;42.72;;;27.30;;
74170;SDS011;62526;50.948;6.590;2023-04-29T13:13:07;48.40;;;28.08;;
74170;SDS011;62526;50.948;6.590;2023-04-29T13:15:34;39.80;;;26.35;;
74170;SDS011;62526;50.948;6.590;2023-04-29T13:18:01;44.88;;;28.98;;
74170;SDS011;62526;50.948;6.590;2023-04-29T13:20:30;45.33;;;27.55;;
74170;SDS011;62526;50.948;6.590;2023-04-29T13:22:57;42.25;;;26.62;;
74170;SDS011;62526;50.948;6.590;2023-04-29T13:25:24;45.50;;;28.20;;
74170;SDS011;62526;50.948;6.590;2023-04-29T13:27:50;46.65;;;28.42;;
74170;SDS011;62526;50.948;6.590;2023-04-29T13:30:17;50.08;;;27.87;;
74170;SDS011;62526;50.948;6.590;2023-04-29T13:32:44;48.60;;;28.67;;
74170;SDS011;62526;50.948;6.590;2023-04-29T13:35:10;44.08;;;29.05;;
74170;SDS011;62526;50.948;6.590;2023-04-29T13:37:37;49.00;;;28.52;;
74170;SDS011;62526;50.948;6.590;2023-04-29T13:40:04;51.45;;;29.33;;
74170;SDS011;62526;50.948;6.590;2023-04-29T13:42:31;48.70;;;28.45;;
74170;SDS011;62526;50.948;6.590;2023-04-29T13:44:57;48.00;;;29.10;;
74170;SDS011;62526;50.948;6.590;2023-04-29T13:47:24;46.13;;;29.85;;
74170;SDS011;62526;50.948;6.590;2023-04-29T13:49:51;52.17;;;30.27;;
74170;SDS011;62526;50.948;6.590;2023-04-29T13:52:17;43.17;;;27.42;;
74170;SDS011;62526;50.948;6.590;2023-04-29T13:54:44;44.75;;;29.98;;
74170;SDS011;62526;50.948;6.590;2023-04-29T13:57:11;46.85;;;30.40;;
74170;SDS011;62526;50.948;6.590;2023-04-29T13:59:37;48.70;;;29.87;;
74170;SDS011;62526;50.948;6.590;2023-04-29T14:02:04;47.13;;;30.17;;
74170;SDS011;62526;50.948;6.590;2023-04-29T14:04:30;42.58;;;26.45;;
74170;SDS011;62526;50.948;6.590;2023-04-29T14:06:57;40.80;;;27.27;;
74170;SDS011;62526;50.948;6.590;2023-04-29T14:09:24;42.67;;;26.25;;
74170;SDS011;62526;50.948;6.590;2023-04-29T14:11:50;41.35;;;26.45;;
74170;SDS011;62526;50.948;6.590;2023-04-29T14:14:17;38.55;;;26.50;;
74170;SDS011;62526;50.948;6.590;2023-04-29T14:16:44;39.72;;;26.30;;
74170;SDS011;62526;50.948;6.590;2023-04-29T14:19:10;36.95;;;25.50;;
74170;SDS011;62526;50.948;6.590;2023-04-29T14:21:37;44.88;;;25.77;;
74170;SDS011;62526;50.948;6.590;2023-04-29T14:24:04;40.78;;;25.58;;
74170;SDS011;62526;50.948;6.590;2023-04-29T14:26:30;37.22;;;24.85;;
74170;SDS011;62526;50.948;6.590;2023-04-29T14:28:57;39.45;;;25.33;;
74170;SDS011;62526;50.948;6.590;2023-04-29T14:31:25;43.38;;;26.12;;
74170;SDS011;62526;50.948;6.590;2023-04-29T14:33:51;35.22;;;24.23;;
74170;SDS011;62526;50.948;6.590;2023-04-29T14:36:18;35.65;;;24.67;;
74170;SDS011;62526;50.948;6.590;2023-04-29T14:38:45;34.33;;;24.83;;
74170;SDS011;62526;50.948;6.590;2023-04-29T14:41:11;36.75;;;24.83;;
74170;SDS011;62526;50.948;6.590;2023-04-29T14:43:38;39.58;;;25.30;;
74170;SDS011;62526;50.948;6.590;2023-04-29T14:46:05;36.63;;;24.87;;
74170;SDS011;62526;50.948;6.590;2023-04-29T14:48:32;38.38;;;25.70;;
74170;SDS011;62526;50.948;6.590;2023-04-29T14:50:59;44.85;;;25.55;;